sensor_id;sensor_type;location;lat;lon;timestamp;temperature;humidity
37285;DHT22;23172;53.550;9.964;2023-04-15T00:04:11;11.70;91.70
37285;DHT22;23172;53.550;9.964;2023-04-15T00:09:13;11.60;92.10
37285;DHT22;23172;53.550;9.964;2023-04-15T00:14:15;11.60;92.30
37285;DHT22;23172;53.550;9.964;2023-04-15T00:19:18;11.50;92.60
37285;DHT22;23172;53.550;9.964;2023-04-15T00:24:20;11.50;92.90
37285;DHT22;23172;53.550;9.964;2023-04-15T00:29:22;11.50;93.10
37285;DHT22;23172;53.550;9.964;2023-04-15T00:34:26;11.50;93.20
37285;DHT22;23172;53.550;9.964;2023-04-15T00:39:28;11.50;93.30
37285;DHT22;23172;53.550;9.964;2023-04-15T00:44:30;11.50;93.50
37285;DHT22;23172;53.550;9.964;2023-04-15T00:49:33;11.50;93.70
37285;DHT22;23172;53.550;9.964;2023-04-15T00:54:36;11.50;93.90
37285;DHT22;23172;53.550;9.964;2023-04-15T00:59:38;11.40;94.10
37285;DHT22;23172;53.550;9.964;2023-04-15T01:04:41;11.40;94.40
37285;DHT22;23172;53.550;9.964;2023-04-15T01:09:43;11.40;94.60
37285;DHT22;23172;53.550;9.964;2023-04-15T01:14:45;11.40;94.80
37285;DHT22;23172;53.550;9.964;2023-04-15T01:19:48;11.40;94.90
37285;DHT22;23172;53.550;9.964;2023-04-15T01:24:56;11.30;95.00
37285;DHT22;23172;53.550;9.964;2023-04-15T01:30:04;11.30;95.40
37285;DHT22;23172;53.550;9.964;2023-04-15T01:35:06;11.20;95.70
37285;DHT22;23172;53.550;9.964;2023-04-15T01:40:08;11.20;96.00
37285;DHT22;23172;53.550;9.964;2023-04-15T01:45:12;11.10;96.20
37285;DHT22;23172;53.550;9.964;2023-04-15T01:50:14;11.10;96.40
37285;DHT22;23172;53.550;9.964;2023-04-15T01:55:16;11.10;96.60
37285;DHT22;23172;53.550;9.964;2023-04-15T02:00:19;11.10;96.80
37285;DHT22;23172;53.550;9.964;2023-04-15T02:05:21;11.10;96.90
37285;DHT22;23172;53.550;9.964;2023-04-15T02:10:23;11.00;97.00
37285;DHT22;23172;53.550;9.964;2023-04-15T02:15:27;11.00;97.10
37285;DHT22;23172;53.550;9.964;2023-04-15T02:20:29;11.00;97.00
37285;DHT22;23172;53.550;9.964;2023-04-15T02:25:31;11.10;97.20
37285;DHT22;23172;53.550;9.964;2023-04-15T02:30:34;11.00;97.30
37285;DHT22;23172;53.550;9.964;2023-04-15T02:35:36;11.00;97.50
37285;DHT22;23172;53.550;9.964;2023-04-15T02:40:42;11.00;97.60
37285;DHT22;23172;53.550;9.964;2023-04-15T02:45:45;11.00;97.60
37285;DHT22;23172;53.550;9.964;2023-04-15T02:50:47;11.00;97.60
37285;DHT22;23172;53.550;9.964;2023-04-15T02:55:49;11.00;97.60
37285;DHT22;23172;53.550;9.964;2023-04-15T03:00:52;11.00;97.80
37285;DHT22;23172;53.550;9.964;2023-04-15T03:05:54;11.00;97.80
37285;DHT22;23172;53.550;9.964;2023-04-15T03:10:57;11.10;97.90
37285;DHT22;23172;53.550;9.964;2023-04-15T03:16:01;11.00;98.00
37285;DHT22;23172;53.550;9.964;2023-04-15T03:21:03;11.00;98.00
37285;DHT22;23172;53.550;9.964;2023-04-15T03:26:05;10.90;98.20
37285;DHT22;23172;53.550;9.964;2023-04-15T03:31:09;11.00;98.30
37285;DHT22;23172;53.550;9.964;2023-04-15T03:36:11;11.00;98.20
37285;DHT22;23172;53.550;9.964;2023-04-15T03:41:13;11.00;98.30
37285;DHT22;23172;53.550;9.964;2023-04-15T03:46:16;11.10;98.30
37285;DHT22;23172;53.550;9.964;2023-04-15T03:51:18;11.10;98.30
37285;DHT22;23172;53.550;9.964;2023-04-15T03:56:20;11.00;98.40
37285;DHT22;23172;53.550;9.964;2023-04-15T04:01:23;11.00;98.50
37285;DHT22;23172;53.550;9.964;2023-04-15T04:06:25;11.00;98.80
37285;DHT22;23172;53.550;9.964;2023-04-15T04:11:27;10.90;98.90
37285;DHT22;23172;53.550;9.964;2023-04-15T04:16:31;11.00;99.00
37285;DHT22;23172;53.550;9.964;2023-04-15T04:21:33;11.00;99.00
37285;DHT22;23172;53.550;9.964;2023-04-15T04:26:36;11.10;99.10
37285;DHT22;23172;53.550;9.964;2023-04-15T04:31:39;11.00;99.20
37285;DHT22;23172;53.550;9.964;2023-04-15T04:36:41;10.90;99.40
37285;DHT22;23172;53.550;9.964;2023-04-15T04:41:44;11.00;99.80
37285;DHT22;23172;53.550;9.964;2023-04-15T04:46:47;11.00;99.50
37285;DHT22;23172;53.550;9.964;2023-04-15T04:51:49;11.00;99.60
37285;DHT22;23172;53.550;9.964;2023-04-15T04:56:52;11.00;99.60
37285;DHT22;23172;53.550;9.964;2023-04-15T05:01:55;11.00;99.80
37285;DHT22;23172;53.550;9.964;2023-04-15T05:06:57;11.00;99.90
37285;DHT22;23172;53.550;9.964;2023-04-15T05:12:00;11.00;99.90
37285;DHT22;23172;53.550;9.964;2023-04-15T05:17:03;11.00;99.90
37285;DHT22;23172;53.550;9.964;2023-04-15T05:22:05;11.00;99.90
37285;DHT22;23172;53.550;9.964;2023-04-15T05:27:07;11.10;99.90
37285;DHT22;23172;53.550;9.964;2023-04-15T05:32:12;11.00;99.90
37285;DHT22;23172;53.550;9.964;2023-04-15T05:37:14;11.00;99.90
37285;DHT22;23172;53.550;9.964;2023-04-15T05:42:16;11.10;99.90
37285;DHT22;23172;53.550;9.964;2023-04-15T05:47:20;11.00;99.90
37285;DHT22;23172;53.550;9.964;2023-04-15T05:52:21;11.10;99.90
37285;DHT22;23172;53.550;9.964;2023-04-15T05:57:23;11.00;99.90
37285;DHT22;23172;53.550;9.964;2023-04-15T06:02:27;11.00;99.90
37285;DHT22;23172;53.550;9.964;2023-04-15T06:07:29;11.10;99.90
37285;DHT22;23172;53.550;9.964;2023-04-15T06:12:31;11.20;99.90
37285;DHT22;23172;53.550;9.964;2023-04-15T06:17:34;11.10;99.90
37285;DHT22;23172;53.550;9.964;2023-04-15T06:22:36;11.10;99.90
37285;DHT22;23172;53.550;9.964;2023-04-15T06:27:39;11.10;99.90
37285;DHT22;23172;53.550;9.964;2023-04-15T06:32:42;11.10;99.90
37285;DHT22;23172;53.550;9.964;2023-04-15T06:37:44;11.20;99.90
37285;DHT22;23172;53.550;9.964;2023-04-15T06:42:46;11.20;99.90
37285;DHT22;23172;53.550;9.964;2023-04-15T06:47:49;11.20;99.90
37285;DHT22;23172;53.550;9.964;2023-04-15T06:52:52;11.20;99.90
37285;DHT22;23172;53.550;9.964;2023-04-15T06:57:54;11.20;99.90
37285;DHT22;23172;53.550;9.964;2023-04-15T07:02:57;11.30;99.90
37285;DHT22;23172;53.550;9.964;2023-04-15T07:08:00;11.40;99.90
37285;DHT22;23172;53.550;9.964;2023-04-15T07:13:03;11.40;99.90
37285;DHT22;23172;53.550;9.964;2023-04-15T07:18:09;11.50;99.90
37285;DHT22;23172;53.550;9.964;2023-04-15T07:23:11;11.50;99.90
37285;DHT22;23172;53.550;9.964;2023-04-15T07:28:13;11.60;99.90
37285;DHT22;23172;53.550;9.964;2023-04-15T07:33:16;11.60;99.90
37285;DHT22;23172;53.550;9.964;2023-04-15T07:38:18;11.60;99.90
37285;DHT22;23172;53.550;9.964;2023-04-15T07:43:20;11.70;99.90
37285;DHT22;23172;53.550;9.964;2023-04-15T07:48:23;11.60;99.90
37285;DHT22;23172;53.550;9.964;2023-04-15T07:53:26;11.70;99.90
37285;DHT22;23172;53.550;9.964;2023-04-15T07:58:27;11.70;99.90
37285;DHT22;23172;53.550;9.964;2023-04-15T08:03:31;11.70;99.90
37285;DHT22;23172;53.550;9.964;2023-04-15T08:08:33;11.80;99.90
37285;DHT22;23172;53.550;9.964;2023-04-15T08:13:35;11.90;99.90
37285;DHT22;23172;53.550;9.964;2023-04-15T08:18:38;12.00;99.90
37285;DHT22;23172;53.550;9.964;2023-04-15T08:23:40;12.00;99.90
37285;DHT22;23172;53.550;9.964;2023-04-15T08:28:43;12.00;99.90
37285;DHT22;23172;53.550;9.964;2023-04-15T08:33:47;12.10;99.90
37285;DHT22;23172;53.550;9.964;2023-04-15T08:38:51;12.10;99.90
37285;DHT22;23172;53.550;9.964;2023-04-15T08:43:56;12.10;99.90
37285;DHT22;23172;53.550;9.964;2023-04-15T08:49:03;12.00;99.90
37285;DHT22;23172;53.550;9.964;2023-04-15T08:54:05;12.00;99.90
37285;DHT22;23172;53.550;9.964;2023-04-15T08:59:08;12.10;99.90
37285;DHT22;23172;53.550;9.964;2023-04-15T09:04:12;12.10;99.90
37285;DHT22;23172;53.550;9.964;2023-04-15T09:09:14;12.20;99.90
37285;DHT22;23172;53.550;9.964;2023-04-15T09:14:16;12.30;99.90
37285;DHT22;23172;53.550;9.964;2023-04-15T09:19:23;12.30;99.70
37285;DHT22;23172;53.550;9.964;2023-04-15T09:24:34;12.40;99.70
37285;DHT22;23172;53.550;9.964;2023-04-15T09:29:37;12.50;99.50
37285;DHT22;23172;53.550;9.964;2023-04-15T09:34:43;12.60;99.50
37285;DHT22;23172;53.550;9.964;2023-04-15T09:39:46;12.70;99.50
37285;DHT22;23172;53.550;9.964;2023-04-15T09:44:49;12.90;99.50
37285;DHT22;23172;53.550;9.964;2023-04-15T09:49:55;13.00;99.50
37285;DHT22;23172;53.550;9.964;2023-04-15T09:54:58;13.20;99.40
37285;DHT22;23172;53.550;9.964;2023-04-15T10:00:02;13.50;99.20
37285;DHT22;23172;53.550;9.964;2023-04-15T10:05:07;13.70;98.70
37285;DHT22;23172;53.550;9.964;2023-04-15T10:10:12;13.70;98.30
37285;DHT22;23172;53.550;9.964;2023-04-15T10:15:15;13.70;98.30
37285;DHT22;23172;53.550;9.964;2023-04-15T10:20:20;13.80;98.10
37285;DHT22;23172;53.550;9.964;2023-04-15T10:25:24;14.00;97.90
37285;DHT22;23172;53.550;9.964;2023-04-15T10:30:27;14.50;98.40
37285;DHT22;23172;53.550;9.964;2023-04-15T10:35:32;15.50;98.30
37285;DHT22;23172;53.550;9.964;2023-04-15T10:40:34;15.90;97.20
37285;DHT22;23172;53.550;9.964;2023-04-15T10:45:37;16.00;96.00
37285;DHT22;23172;53.550;9.964;2023-04-15T10:50:55;15.60;95.20
37285;DHT22;23172;53.550;9.964;2023-04-15T10:55:57;15.70;95.20
37285;DHT22;23172;53.550;9.964;2023-04-15T11:01:01;16.00;95.30
37285;DHT22;23172;53.550;9.964;2023-04-15T11:06:05;16.70;95.00
37285;DHT22;23172;53.550;9.964;2023-04-15T11:11:07;17.00;94.30
37285;DHT22;23172;53.550;9.964;2023-04-15T11:16:09;17.20;94.00
37285;DHT22;23172;53.550;9.964;2023-04-15T11:21:13;16.90;92.40
37285;DHT22;23172;53.550;9.964;2023-04-15T11:26:16;16.60;91.80
37285;DHT22;23172;53.550;9.964;2023-04-15T11:31:17;16.40;91.60
37285;DHT22;23172;53.550;9.964;2023-04-15T11:36:23;16.20;91.40
37285;DHT22;23172;53.550;9.964;2023-04-15T11:41:27;16.20;91.10
37285;DHT22;23172;53.550;9.964;2023-04-15T11:46:29;16.00;90.60
37285;DHT22;23172;53.550;9.964;2023-04-15T11:51:34;15.90;90.30
37285;DHT22;23172;53.550;9.964;2023-04-15T11:56:36;15.80;90.40
37285;DHT22;23172;53.550;9.964;2023-04-15T12:01:38;15.80;90.50
37285;DHT22;23172;53.550;9.964;2023-04-15T12:06:43;15.70;90.40
37285;DHT22;23172;53.550;9.964;2023-04-15T12:11:46;15.70;90.30
37285;DHT22;23172;53.550;9.964;2023-04-15T12:16:50;15.70;90.20
37285;DHT22;23172;53.550;9.964;2023-04-15T12:21:57;15.70;89.70
37285;DHT22;23172;53.550;9.964;2023-04-15T12:27:04;15.70;89.00
37285;DHT22;23172;53.550;9.964;2023-04-15T12:32:08;15.70;88.80
37285;DHT22;23172;53.550;9.964;2023-04-15T12:37:12;15.60;88.60
37285;DHT22;23172;53.550;9.964;2023-04-15T12:42:14;15.50;88.40
37285;DHT22;23172;53.550;9.964;2023-04-15T12:47:17;15.50;88.50
37285;DHT22;23172;53.550;9.964;2023-04-15T12:52:20;15.60;88.50
37285;DHT22;23172;53.550;9.964;2023-04-15T12:57:23;15.60;87.40
37285;DHT22;23172;53.550;9.964;2023-04-15T13:02:25;15.60;87.30
37285;DHT22;23172;53.550;9.964;2023-04-15T13:07:29;15.60;86.10
37285;DHT22;23172;53.550;9.964;2023-04-15T13:12:32;15.70;85.80
37285;DHT22;23172;53.550;9.964;2023-04-15T13:17:35;15.90;85.70
37285;DHT22;23172;53.550;9.964;2023-04-15T13:22:39;16.00;84.80
37285;DHT22;23172;53.550;9.964;2023-04-15T13:27:41;16.20;84.50
37285;DHT22;23172;53.550;9.964;2023-04-15T13:32:43;16.20;83.10
37285;DHT22;23172;53.550;9.964;2023-04-15T13:37:46;16.20;82.10
37285;DHT22;23172;53.550;9.964;2023-04-15T13:42:48;16.30;82.40
37285;DHT22;23172;53.550;9.964;2023-04-15T13:47:51;16.40;80.20
37285;DHT22;23172;53.550;9.964;2023-04-15T13:52:55;16.60;78.50
37285;DHT22;23172;53.550;9.964;2023-04-15T13:57:57;16.60;77.80
37285;DHT22;23172;53.550;9.964;2023-04-15T14:02:59;16.80;77.20
37285;DHT22;23172;53.550;9.964;2023-04-15T14:08:02;17.00;76.10
37285;DHT22;23172;53.550;9.964;2023-04-15T14:13:04;17.10;74.40
37285;DHT22;23172;53.550;9.964;2023-04-15T14:18:06;17.40;73.50
37285;DHT22;23172;53.550;9.964;2023-04-15T14:23:09;17.40;71.40
37285;DHT22;23172;53.550;9.964;2023-04-15T14:28:11;17.20;71.00
37285;DHT22;23172;53.550;9.964;2023-04-15T14:33:13;17.40;70.30
37285;DHT22;23172;53.550;9.964;2023-04-15T14:38:17;17.20;69.90
37285;DHT22;23172;53.550;9.964;2023-04-15T14:43:19;17.60;70.00
37285;DHT22;23172;53.550;9.964;2023-04-15T14:48:21;17.60;68.30
37285;DHT22;23172;53.550;9.964;2023-04-15T14:53:24;17.40;67.70
37285;DHT22;23172;53.550;9.964;2023-04-15T14:58:26;17.40;67.70
37285;DHT22;23172;53.550;9.964;2023-04-15T15:03:28;17.30;67.30
37285;DHT22;23172;53.550;9.964;2023-04-15T15:08:32;17.10;67.30
37285;DHT22;23172;53.550;9.964;2023-04-15T15:13:34;17.20;67.50
37285;DHT22;23172;53.550;9.964;2023-04-15T15:18:36;17.10;66.90
37285;DHT22;23172;53.550;9.964;2023-04-15T15:23:39;17.00;67.40
37285;DHT22;23172;53.550;9.964;2023-04-15T15:28:41;17.00;67.40
37285;DHT22;23172;53.550;9.964;2023-04-15T15:33:44;17.00;67.20
37285;DHT22;23172;53.550;9.964;2023-04-15T15:38:48;16.90;67.40
37285;DHT22;23172;53.550;9.964;2023-04-15T15:43:50;16.60;68.20
37285;DHT22;23172;53.550;9.964;2023-04-15T15:48:52;16.50;68.50
37285;DHT22;23172;53.550;9.964;2023-04-15T15:53:55;16.50;68.90
37285;DHT22;23172;53.550;9.964;2023-04-15T15:58:57;16.50;69.10
37285;DHT22;23172;53.550;9.964;2023-04-15T16:03:59;16.40;69.70
37285;DHT22;23172;53.550;9.964;2023-04-15T16:09:02;16.30;70.40
37285;DHT22;23172;53.550;9.964;2023-04-15T16:14:04;16.20;70.60
37285;DHT22;23172;53.550;9.964;2023-04-15T16:19:06;16.20;71.00
37285;DHT22;23172;53.550;9.964;2023-04-15T16:24:09;16.00;71.40
37285;DHT22;23172;53.550;9.964;2023-04-15T16:29:11;16.00;72.00
37285;DHT22;23172;53.550;9.964;2023-04-15T16:34:13;15.90;72.20
37285;DHT22;23172;53.550;9.964;2023-04-15T16:39:17;15.80;73.10
37285;DHT22;23172;53.550;9.964;2023-04-15T16:49:24;15.70;74.30
37285;DHT22;23172;53.550;9.964;2023-04-15T16:54:28;15.60;74.80
37285;DHT22;23172;53.550;9.964;2023-04-15T16:59:30;15.60;75.50
37285;DHT22;23172;53.550;9.964;2023-04-15T17:04:32;15.40;76.60
37285;DHT22;23172;53.550;9.964;2023-04-15T17:09:37;15.30;77.20
37285;DHT22;23172;53.550;9.964;2023-04-15T17:14:39;15.30;77.40
37285;DHT22;23172;53.550;9.964;2023-04-15T17:19:41;15.20;77.90
37285;DHT22;23172;53.550;9.964;2023-04-15T17:24:44;15.10;78.90
37285;DHT22;23172;53.550;9.964;2023-04-15T17:29:46;15.10;79.30
37285;DHT22;23172;53.550;9.964;2023-04-15T17:34:48;15.00;79.40
37285;DHT22;23172;53.550;9.964;2023-04-15T17:39:51;15.00;79.80
37285;DHT22;23172;53.550;9.964;2023-04-15T17:44:53;15.00;80.30
37285;DHT22;23172;53.550;9.964;2023-04-15T17:49:55;15.00;80.90
37285;DHT22;23172;53.550;9.964;2023-04-15T17:54:59;14.80;82.00
37285;DHT22;23172;53.550;9.964;2023-04-15T18:00:01;14.80;82.50
37285;DHT22;23172;53.550;9.964;2023-04-15T18:05:03;14.80;82.70
37285;DHT22;23172;53.550;9.964;2023-04-15T18:10:08;14.80;83.10
37285;DHT22;23172;53.550;9.964;2023-04-15T18:15:11;14.70;83.50
37285;DHT22;23172;53.550;9.964;2023-04-15T18:20:14;14.70;83.60
37285;DHT22;23172;53.550;9.964;2023-04-15T18:25:17;14.70;84.00
37285;DHT22;23172;53.550;9.964;2023-04-15T18:30:20;14.60;84.60
37285;DHT22;23172;53.550;9.964;2023-04-15T18:35:21;14.50;85.00
37285;DHT22;23172;53.550;9.964;2023-04-15T18:40:25;14.40;85.30
37285;DHT22;23172;53.550;9.964;2023-04-15T18:45:28;14.40;85.80
37285;DHT22;23172;53.550;9.964;2023-04-15T18:50:30;14.30;86.50
37285;DHT22;23172;53.550;9.964;2023-04-15T18:55:34;14.20;86.80
37285;DHT22;23172;53.550;9.964;2023-04-15T19:00:36;14.10;87.40
37285;DHT22;23172;53.550;9.964;2023-04-15T19:05:43;14.00;88.20
37285;DHT22;23172;53.550;9.964;2023-04-15T19:10:46;14.00;88.30
37285;DHT22;23172;53.550;9.964;2023-04-15T19:15:48;14.00;88.20
37285;DHT22;23172;53.550;9.964;2023-04-15T19:20:50;13.90;88.30
37285;DHT22;23172;53.550;9.964;2023-04-15T19:25:53;13.90;88.70
37285;DHT22;23172;53.550;9.964;2023-04-15T19:30:57;13.80;88.90
37285;DHT22;23172;53.550;9.964;2023-04-15T19:36:01;13.70;88.90
37285;DHT22;23172;53.550;9.964;2023-04-15T19:41:05;13.70;89.20
37285;DHT22;23172;53.550;9.964;2023-04-15T19:46:08;13.60;89.20
37285;DHT22;23172;53.550;9.964;2023-04-15T19:51:12;13.60;89.30
37285;DHT22;23172;53.550;9.964;2023-04-15T19:56:15;13.50;89.30
37285;DHT22;23172;53.550;9.964;2023-04-15T20:01:17;13.60;89.50
37285;DHT22;23172;53.550;9.964;2023-04-15T20:06:19;13.50;89.70
37285;DHT22;23172;53.550;9.964;2023-04-15T20:11:23;13.50;89.90
37285;DHT22;23172;53.550;9.964;2023-04-15T20:16:28;13.40;90.00
37285;DHT22;23172;53.550;9.964;2023-04-15T20:21:30;13.30;90.10
37285;DHT22;23172;53.550;9.964;2023-04-15T20:26:34;13.20;90.40
37285;DHT22;23172;53.550;9.964;2023-04-15T20:31:35;13.20;90.40
37285;DHT22;23172;53.550;9.964;2023-04-15T20:36:38;13.20;90.40
37285;DHT22;23172;53.550;9.964;2023-04-15T20:41:41;13.20;90.40
37285;DHT22;23172;53.550;9.964;2023-04-15T20:46:43;13.10;90.40
37285;DHT22;23172;53.550;9.964;2023-04-15T20:51:45;13.00;90.70
37285;DHT22;23172;53.550;9.964;2023-04-15T20:56:48;12.90;90.80
37285;DHT22;23172;53.550;9.964;2023-04-15T21:01:50;12.80;91.00
37285;DHT22;23172;53.550;9.964;2023-04-15T21:06:52;12.90;90.90
37285;DHT22;23172;53.550;9.964;2023-04-15T21:11:55;13.00;90.80
37285;DHT22;23172;53.550;9.964;2023-04-15T21:16:57;13.00;90.60
37285;DHT22;23172;53.550;9.964;2023-04-15T21:21:59;13.00;90.60
37285;DHT22;23172;53.550;9.964;2023-04-15T21:27:03;12.90;90.80
37285;DHT22;23172;53.550;9.964;2023-04-15T21:32:05;12.80;90.90
37285;DHT22;23172;53.550;9.964;2023-04-15T21:37:07;12.80;90.90
37285;DHT22;23172;53.550;9.964;2023-04-15T21:42:10;12.70;91.00
37285;DHT22;23172;53.550;9.964;2023-04-15T21:47:12;12.70;91.10
37285;DHT22;23172;53.550;9.964;2023-04-15T21:52:14;12.60;91.10
37285;DHT22;23172;53.550;9.964;2023-04-15T21:57:18;12.60;91.20
37285;DHT22;23172;53.550;9.964;2023-04-15T22:02:20;12.60;91.20
37285;DHT22;23172;53.550;9.964;2023-04-15T22:07:22;12.60;91.30
37285;DHT22;23172;53.550;9.964;2023-04-15T22:12:25;12.60;91.30
37285;DHT22;23172;53.550;9.964;2023-04-15T22:17:27;12.60;91.40
37285;DHT22;23172;53.550;9.964;2023-04-15T22:22:29;12.50;91.40
37285;DHT22;23172;53.550;9.964;2023-04-15T22:27:33;12.50;91.40
37285;DHT22;23172;53.550;9.964;2023-04-15T22:32:35;12.50;91.50
37285;DHT22;23172;53.550;9.964;2023-04-15T22:37:37;12.50;91.60
37285;DHT22;23172;53.550;9.964;2023-04-15T22:42:40;12.40;91.50
37285;DHT22;23172;53.550;9.964;2023-04-15T22:47:42;12.40;91.60
37285;DHT22;23172;53.550;9.964;2023-04-15T22:52:44;12.40;91.60
37285;DHT22;23172;53.550;9.964;2023-04-15T22:57:49;12.40;91.70
37285;DHT22;23172;53.550;9.964;2023-04-15T23:02:52;12.30;91.80
37285;DHT22;23172;53.550;9.964;2023-04-15T23:07:54;12.30;91.80
37285;DHT22;23172;53.550;9.964;2023-04-15T23:12:57;12.30;91.80
37285;DHT22;23172;53.550;9.964;2023-04-15T23:17:59;12.20;91.90
37285;DHT22;23172;53.550;9.964;2023-04-15T23:23:01;12.20;92.00
37285;DHT22;23172;53.550;9.964;2023-04-15T23:28:05;12.20;92.00
37285;DHT22;23172;53.550;9.964;2023-04-15T23:33:07;12.10;92.00
37285;DHT22;23172;53.550;9.964;2023-04-15T23:38:08;12.10;92.10
37285;DHT22;23172;53.550;9.964;2023-04-15T23:43:12;12.10;92.10
37285;DHT22;23172;53.550;9.964;2023-04-15T23:48:13;12.10;92.20
37285;DHT22;23172;53.550;9.964;2023-04-15T23:53:15;12.10;92.20
37285;DHT22;23172;53.550;9.964;2023-04-15T23:58:19;12.00;92.20
